Jamie Marie — WDE7178 — position and weather

sailwx.info

Track history (hours):
 
Tides and Currents Weather Stations Pressure Air Temp Water Temp Dewpoint Dewpoint Depression Visibility Wind Speed Wind Dir Waves Ship Positions

Jamie Marie

Owner: Jamie Marie, Inc., Aberdeen, WA. More information available from US FCC via Universal Licensing System and Coast Guard Vessel Documentation Center.

Last reported at 2015-May-03 22:33 UTC. Time now 2015-May-03 22:56 UTC.
Position N 46°53' W 124°24'.

Length 30 m.

Type: Fishing. MMSI: 366425240.

Date/timePositionNaut miles runAvg speedWind from/ knotsBaromVisibWave heightAir tempDewpointWater temp
2015-May-03 22:33N 46°53' W 124°24'8 8.0
2015-May-03 21:33N 46°55' W 124°12'4 2.8
2015-May-03 20:09N 46°54' W 124°06'0 0.0
2015-May-03 16:19N 46°54' W 124°06'0 0.0
2015-May-03 15:25N 46°54' W 124°06'0 0.0
2015-May-03 14:04N 46°54' W 124°06'0 0.0
2015-May-03 13:03N 46°54' W 124°06'0 0.0
2015-May-03 06:15N 46°54' W 124°06'0 0.0
2015-May-03 05:07N 46°54' W 124°06'0 0.0
2015-May-03 03:26N 46°54' W 124°06'0 0.0
2015-May-03 02:25N 46°54' W 124°06'0 0.0
2015-May-03 01:33N 46°54' W 124°06'1 0.0
2015-May-01 11:07N 46°55' W 124°08'3 5.2
2015-May-01 10:33N 46°55' W 124°13'6 6.3
2015-May-01 09:33N 46°60' W 124°20'7 7.4
2015-May-01 08:33N 47°05' W 124°27'2 0.0
2015-Apr-29 09:12N 47°05' W 124°25'4 6.8
2015-Apr-29 08:33N 47°02' W 124°21'7 6.9
2015-Apr-29 07:33N 46°56' W 124°16'5 0.1
2015-Apr-27 12:13N 46°55' W 124°09'4 6.8
2015-Apr-27 11:34N 46°56' W 124°15'5 5.0
2015-Apr-27 10:33N 47°00' W 124°18'6 5.7
2015-Apr-27 09:33N 47°05' W 124°24'  
2015-Apr-25 04:33N 47°01' W 124°40'6 6.1
2015-Apr-25 03:33N 46°55' W 124°39'4 4.1
2015-Apr-25 02:33N 46°51' W 124°40'3 2.6
2015-Apr-25 01:33N 46°53' W 124°41'2 2.0
2015-Apr-25 00:33N 46°55' W 124°43'2 2.0
2015-Apr-24 23:33N 46°53' W 124°41'2 1.7
2015-Apr-24 22:33N 46°52' W 124°40'2 1.8
2015-Apr-24 21:33N 46°50' W 124°40'2 1.9
2015-Apr-24 20:33N 46°52' W 124°39'2 1.6
2015-Apr-24 19:33N 46°53' W 124°39'2 1.9
2015-Apr-24 18:33N 46°55' W 124°40'3 3.0
2015-Apr-24 17:33N 46°52' W 124°40'3 2.6
2015-Apr-24 16:33N 46°52' W 124°44'2 2.0
2015-Apr-24 15:33N 46°54' W 124°45'0 0.4
2015-Apr-24 14:33N 46°53' W 124°45'4 4.1
2015-Apr-24 13:33N 46°53' W 124°39'1 1.3
2015-Apr-24 12:33N 46°53' W 124°37'1 1.1
2015-Apr-24 11:28N 46°53' W 124°39'3 3.8
2015-Apr-24 10:33N 46°54' W 124°34'4 3.8
2015-Apr-24 09:34N 46°54' W 124°28'4 4.5
2015-Apr-24 08:33N 46°54' W 124°22'5 5.4
2015-Apr-24 07:33N 46°55' W 124°14'  
Track history (hours):
 
Tides and Currents Weather Stations Pressure Air Temp Water Temp Dewpoint Dewpoint Depression Visibility Wind Speed Wind Dir Waves Ship Positions

Jamie Marie

Owner: Jamie Marie, Inc., Aberdeen, WA. More information available from US FCC via Universal Licensing System and Coast Guard Vessel Documentation Center.

Last reported at 2015-May-03 22:33 UTC. Time now 2015-May-03 22:56 UTC.
Position N 46°53' W 124°24'.

Length 30 m.

Type: Fishing. MMSI: 366425240.

Date/timePositionNaut miles runAvg speedWind from/ knotsBaromVisibWave heightAir tempDewpointWater temp
2015-May-03 22:33N 46°53' W 124°24'8 8.0
2015-May-03 21:33N 46°55' W 124°12'4 2.8
2015-May-03 20:09N 46°54' W 124°06'0 0.0
2015-May-03 16:19N 46°54' W 124°06'0 0.0
2015-May-03 15:25N 46°54' W 124°06'0 0.0
2015-May-03 14:04N 46°54' W 124°06'0 0.0
2015-May-03 13:03N 46°54' W 124°06'0 0.0
2015-May-03 06:15N 46°54' W 124°06'0 0.0
2015-May-03 05:07N 46°54' W 124°06'0 0.0
2015-May-03 03:26N 46°54' W 124°06'0 0.0
2015-May-03 02:25N 46°54' W 124°06'0 0.0
2015-May-03 01:33N 46°54' W 124°06'1 0.0
2015-May-01 11:07N 46°55' W 124°08'3 5.2
2015-May-01 10:33N 46°55' W 124°13'6 6.3
2015-May-01 09:33N 46°60' W 124°20'7 7.4
2015-May-01 08:33N 47°05' W 124°27'2 0.0
2015-Apr-29 09:12N 47°05' W 124°25'4 6.8
2015-Apr-29 08:33N 47°02' W 124°21'7 6.9
2015-Apr-29 07:33N 46°56' W 124°16'5 0.1
2015-Apr-27 12:13N 46°55' W 124°09'4 6.8
2015-Apr-27 11:34N 46°56' W 124°15'5 5.0
2015-Apr-27 10:33N 47°00' W 124°18'6 5.7
2015-Apr-27 09:33N 47°05' W 124°24'  
2015-Apr-25 04:33N 47°01' W 124°40'6 6.1
2015-Apr-25 03:33N 46°55' W 124°39'4 4.1
2015-Apr-25 02:33N 46°51' W 124°40'3 2.6
2015-Apr-25 01:33N 46°53' W 124°41'2 2.0
2015-Apr-25 00:33N 46°55' W 124°43'2 2.0
2015-Apr-24 23:33N 46°53' W 124°41'2 1.7
2015-Apr-24 22:33N 46°52' W 124°40'2 1.8
2015-Apr-24 21:33N 46°50' W 124°40'2 1.9
2015-Apr-24 20:33N 46°52' W 124°39'2 1.6
2015-Apr-24 19:33N 46°53' W 124°39'2 1.9
2015-Apr-24 18:33N 46°55' W 124°40'3 3.0
2015-Apr-24 17:33N 46°52' W 124°40'3 2.6
2015-Apr-24 16:33N 46°52' W 124°44'2 2.0
2015-Apr-24 15:33N 46°54' W 124°45'0 0.4
2015-Apr-24 14:33N 46°53' W 124°45'4 4.1
2015-Apr-24 13:33N 46°53' W 124°39'1 1.3
2015-Apr-24 12:33N 46°53' W 124°37'1 1.1
2015-Apr-24 11:28N 46°53' W 124°39'3 3.8
2015-Apr-24 10:33N 46°54' W 124°34'4 3.8
2015-Apr-24 09:34N 46°54' W 124°28'4 4.5
2015-Apr-24 08:33N 46°54' W 124°22'5 5.4
2015-Apr-24 07:33N 46°55' W 124°14'  

Dump ship's entire track history